sensor_id;sensor_type;location;lat;lon;timestamp;P1;durP1;ratioP1;P2;durP2;ratioP2
64873;SDS011;51367;45.204;38.576;2024-02-16T00:01:20;1.10;;;1.02;;
64873;SDS011;51367;45.204;38.576;2024-02-16T00:03:46;5.85;;;2.67;;
64873;SDS011;51367;45.204;38.576;2024-02-16T00:06:12;1.35;;;1.25;;
64873;SDS011;51367;45.204;38.576;2024-02-16T00:08:38;2.45;;;1.85;;
64873;SDS011;51367;45.204;38.576;2024-02-16T00:11:04;2.67;;;2.47;;
64873;SDS011;51367;45.204;38.576;2024-02-16T00:13:31;3.60;;;3.13;;
64873;SDS011;51367;45.204;38.576;2024-02-16T00:15:57;4.80;;;2.53;;
64873;SDS011;51367;45.204;38.576;2024-02-16T00:18:23;1.90;;;1.80;;
64873;SDS011;51367;45.204;38.576;2024-02-16T00:20:49;3.50;;;3.17;;
64873;SDS011;51367;45.204;38.576;2024-02-16T00:23:15;3.63;;;3.33;;
64873;SDS011;51367;45.204;38.576;2024-02-16T00:25:41;6.82;;;6.40;;
64873;SDS011;51367;45.204;38.576;2024-02-16T00:28:08;4.05;;;3.85;;
64873;SDS011;51367;45.204;38.576;2024-02-16T00:30:34;2.25;;;2.15;;
64873;SDS011;51367;45.204;38.576;2024-02-16T00:33:01;2.35;;;2.15;;
64873;SDS011;51367;45.204;38.576;2024-02-16T00:35:28;2.22;;;2.13;;
64873;SDS011;51367;45.204;38.576;2024-02-16T00:37:59;3.13;;;1.88;;
64873;SDS011;51367;45.204;38.576;2024-02-16T00:40:25;1.92;;;1.65;;
64873;SDS011;51367;45.204;38.576;2024-02-16T00:42:54;3.80;;;3.38;;
64873;SDS011;51367;45.204;38.576;2024-02-16T00:45:20;2.83;;;2.28;;
64873;SDS011;51367;45.204;38.576;2024-02-16T00:47:46;1.75;;;1.65;;
64873;SDS011;51367;45.204;38.576;2024-02-16T00:50:14;1.17;;;1.17;;
64873;SDS011;51367;45.204;38.576;2024-02-16T00:52:40;3.65;;;2.83;;
64873;SDS011;51367;45.204;38.576;2024-02-16T00:55:07;1.90;;;1.80;;
64873;SDS011;51367;45.204;38.576;2024-02-16T00:57:33;0.93;;;0.93;;
64873;SDS011;51367;45.204;38.576;2024-02-16T00:59:59;1.40;;;1.40;;
64873;SDS011;51367;45.204;38.576;2024-02-16T01:02:26;1.75;;;1.65;;
64873;SDS011;51367;45.204;38.576;2024-02-16T01:04:51;0.85;;;0.85;;
64873;SDS011;51367;45.204;38.576;2024-02-16T01:07:18;0.68;;;0.68;;
64873;SDS011;51367;45.204;38.576;2024-02-16T01:09:44;1.25;;;1.20;;
64873;SDS011;51367;45.204;38.576;2024-02-16T01:12:10;0.65;;;0.65;;
64873;SDS011;51367;45.204;38.576;2024-02-16T01:14:36;1.38;;;1.27;;
64873;SDS011;51367;45.204;38.576;2024-02-16T01:17:02;0.55;;;0.52;;
64873;SDS011;51367;45.204;38.576;2024-02-16T01:19:29;2.50;;;2.30;;
64873;SDS011;51367;45.204;38.576;2024-02-16T01:21:55;1.33;;;1.23;;
64873;SDS011;51367;45.204;38.576;2024-02-16T01:24:23;2.30;;;1.17;;
64873;SDS011;51367;45.204;38.576;2024-02-16T01:26:49;1.45;;;1.35;;
64873;SDS011;51367;45.204;38.576;2024-02-16T01:29:15;2.83;;;1.45;;
64873;SDS011;51367;45.204;38.576;2024-02-16T01:31:41;1.00;;;1.00;;
64873;SDS011;51367;45.204;38.576;2024-02-16T01:34:07;1.42;;;1.30;;
64873;SDS011;51367;45.204;38.576;2024-02-16T01:36:33;2.13;;;1.98;;
64873;SDS011;51367;45.204;38.576;2024-02-16T01:38:59;1.27;;;1.17;;
64873;SDS011;51367;45.204;38.576;2024-02-16T01:41:25;0.65;;;0.65;;
64873;SDS011;51367;45.204;38.576;2024-02-16T01:43:52;0.90;;;0.88;;
64873;SDS011;51367;45.204;38.576;2024-02-16T01:46:20;1.10;;;0.88;;
64873;SDS011;51367;45.204;38.576;2024-02-16T01:48:48;0.98;;;0.90;;
64873;SDS011;51367;45.204;38.576;2024-02-16T01:51:15;2.10;;;1.38;;
64873;SDS011;51367;45.204;38.576;2024-02-16T01:53:41;16.70;;;15.85;;
64873;SDS011;51367;45.204;38.576;2024-02-16T01:56:07;53.97;;;49.17;;
64873;SDS011;51367;45.204;38.576;2024-02-16T01:58:34;64.30;;;57.42;;
64873;SDS011;51367;45.204;38.576;2024-02-16T02:01:00;8.57;;;8.13;;
64873;SDS011;51367;45.204;38.576;2024-02-16T02:03:26;1.30;;;1.20;;
64873;SDS011;51367;45.204;38.576;2024-02-16T02:05:52;1.15;;;1.10;;
64873;SDS011;51367;45.204;38.576;2024-02-16T02:08:19;1.75;;;1.10;;
64873;SDS011;51367;45.204;38.576;2024-02-16T02:10:45;1.38;;;1.27;;
64873;SDS011;51367;45.204;38.576;2024-02-16T02:13:11;1.15;;;1.05;;
64873;SDS011;51367;45.204;38.576;2024-02-16T02:15:37;1.63;;;0.93;;
64873;SDS011;51367;45.204;38.576;2024-02-16T02:18:03;0.95;;;0.93;;
64873;SDS011;51367;45.204;38.576;2024-02-16T02:20:29;0.65;;;0.65;;
64873;SDS011;51367;45.204;38.576;2024-02-16T02:22:56;5.85;;;5.55;;
64873;SDS011;51367;45.204;38.576;2024-02-16T02:25:21;1.85;;;1.27;;
64873;SDS011;51367;45.204;38.576;2024-02-16T02:27:47;1.15;;;1.05;;
64873;SDS011;51367;45.204;38.576;2024-02-16T02:30:13;1.65;;;1.55;;
64873;SDS011;51367;45.204;38.576;2024-02-16T02:32:41;0.60;;;0.60;;
64873;SDS011;51367;45.204;38.576;2024-02-16T02:35:08;0.85;;;0.85;;
64873;SDS011;51367;45.204;38.576;2024-02-16T02:37:34;0.75;;;0.73;;
64873;SDS011;51367;45.204;38.576;2024-02-16T02:40:00;1.25;;;1.02;;
64873;SDS011;51367;45.204;38.576;2024-02-16T02:42:26;0.68;;;0.68;;
64873;SDS011;51367;45.204;38.576;2024-02-16T02:44:53;1.23;;;1.15;;
64873;SDS011;51367;45.204;38.576;2024-02-16T02:47:19;0.80;;;0.70;;
64873;SDS011;51367;45.204;38.576;2024-02-16T02:49:45;1.30;;;1.20;;
64873;SDS011;51367;45.204;38.576;2024-02-16T02:52:11;0.60;;;0.60;;
64873;SDS011;51367;45.204;38.576;2024-02-16T02:54:37;0.80;;;0.80;;
64873;SDS011;51367;45.204;38.576;2024-02-16T02:57:03;1.17;;;1.08;;
64873;SDS011;51367;45.204;38.576;2024-02-16T02:59:29;1.38;;;1.27;;
64873;SDS011;51367;45.204;38.576;2024-02-16T03:01:55;1.35;;;1.20;;
64873;SDS011;51367;45.204;38.576;2024-02-16T03:04:21;0.52;;;0.38;;
64873;SDS011;51367;45.204;38.576;2024-02-16T03:06:47;0.75;;;0.75;;
64873;SDS011;51367;45.204;38.576;2024-02-16T03:09:13;0.98;;;0.98;;
64873;SDS011;51367;45.204;38.576;2024-02-16T03:11:39;1.33;;;1.20;;
64873;SDS011;51367;45.204;38.576;2024-02-16T03:14:05;0.80;;;0.80;;
64873;SDS011;51367;45.204;38.576;2024-02-16T03:16:31;1.10;;;1.10;;
64873;SDS011;51367;45.204;38.576;2024-02-16T03:18:58;0.95;;;0.95;;
64873;SDS011;51367;45.204;38.576;2024-02-16T03:21:24;0.50;;;0.50;;
64873;SDS011;51367;45.204;38.576;2024-02-16T03:23:50;1.50;;;1.40;;
64873;SDS011;51367;45.204;38.576;2024-02-16T03:26:16;0.70;;;0.70;;
64873;SDS011;51367;45.204;38.576;2024-02-16T03:28:44;0.65;;;0.52;;
64873;SDS011;51367;45.204;38.576;2024-02-16T03:31:17;1.38;;;0.98;;
64873;SDS011;51367;45.204;38.576;2024-02-16T03:36:14;0.70;;;0.70;;
64873;SDS011;51367;45.204;38.576;2024-02-16T03:38:41;0.45;;;0.45;;
64873;SDS011;51367;45.204;38.576;2024-02-16T03:41:12;1.20;;;0.90;;
64873;SDS011;51367;45.204;38.576;2024-02-16T03:43:45;1.33;;;1.23;;
64873;SDS011;51367;45.204;38.576;2024-02-16T03:46:11;1.52;;;1.42;;
64873;SDS011;51367;45.204;38.576;2024-02-16T03:48:38;1.38;;;1.30;;
64873;SDS011;51367;45.204;38.576;2024-02-16T03:51:05;1.38;;;1.27;;
64873;SDS011;51367;45.204;38.576;2024-02-16T03:53:32;1.48;;;0.80;;
64873;SDS011;51367;45.204;38.576;2024-02-16T03:55:58;1.40;;;1.30;;
64873;SDS011;51367;45.204;38.576;2024-02-16T03:58:24;1.10;;;1.10;;
64873;SDS011;51367;45.204;38.576;2024-02-16T04:00:50;1.02;;;1.02;;
64873;SDS011;51367;45.204;38.576;2024-02-16T04:03:18;1.13;;;1.13;;
64873;SDS011;51367;45.204;38.576;2024-02-16T04:05:44;1.23;;;1.13;;
64873;SDS011;51367;45.204;38.576;2024-02-16T04:08:10;1.20;;;1.20;;
64873;SDS011;51367;45.204;38.576;2024-02-16T04:10:36;0.70;;;0.70;;
64873;SDS011;51367;45.204;38.576;2024-02-16T04:13:02;1.17;;;1.10;;
64873;SDS011;51367;45.204;38.576;2024-02-16T04:15:29;6.45;;;6.05;;
64873;SDS011;51367;45.204;38.576;2024-02-16T04:17:55;2.17;;;1.83;;
64873;SDS011;51367;45.204;38.576;2024-02-16T04:20:22;1.88;;;1.77;;
64873;SDS011;51367;45.204;38.576;2024-02-16T04:22:48;1.25;;;1.15;;
64873;SDS011;51367;45.204;38.576;2024-02-16T04:25:14;0.60;;;0.60;;
64873;SDS011;51367;45.204;38.576;2024-02-16T04:27:40;1.33;;;1.00;;
64873;SDS011;51367;45.204;38.576;2024-02-16T04:30:06;0.50;;;0.50;;
64873;SDS011;51367;45.204;38.576;2024-02-16T04:32:32;1.60;;;1.27;;
64873;SDS011;51367;45.204;38.576;2024-02-16T04:34:58;1.05;;;1.05;;
64873;SDS011;51367;45.204;38.576;2024-02-16T04:37:25;1.55;;;1.17;;
64873;SDS011;51367;45.204;38.576;2024-02-16T04:39:51;1.30;;;1.20;;
64873;SDS011;51367;45.204;38.576;2024-02-16T04:42:17;1.15;;;1.05;;
64873;SDS011;51367;45.204;38.576;2024-02-16T04:44:44;1.00;;;1.00;;
64873;SDS011;51367;45.204;38.576;2024-02-16T04:47:10;1.05;;;0.95;;
64873;SDS011;51367;45.204;38.576;2024-02-16T04:49:36;2.13;;;1.60;;
64873;SDS011;51367;45.204;38.576;2024-02-16T04:52:03;1.40;;;1.30;;
64873;SDS011;51367;45.204;38.576;2024-02-16T04:54:29;1.20;;;1.20;;
64873;SDS011;51367;45.204;38.576;2024-02-16T04:56:55;1.70;;;1.52;;
64873;SDS011;51367;45.204;38.576;2024-02-16T04:59:21;1.00;;;0.98;;
64873;SDS011;51367;45.204;38.576;2024-02-16T05:01:47;1.52;;;1.42;;
64873;SDS011;51367;45.204;38.576;2024-02-16T05:04:13;1.17;;;1.17;;
64873;SDS011;51367;45.204;38.576;2024-02-16T05:06:42;3.03;;;1.25;;
64873;SDS011;51367;45.204;38.576;2024-02-16T05:09:11;1.08;;;1.02;;
64873;SDS011;51367;45.204;38.576;2024-02-16T05:11:42;0.52;;;0.52;;
64873;SDS011;51367;45.204;38.576;2024-02-16T05:14:09;1.17;;;1.08;;
64873;SDS011;51367;45.204;38.576;2024-02-16T05:16:37;1.95;;;1.85;;
64873;SDS011;51367;45.204;38.576;2024-02-16T05:19:07;1.45;;;1.35;;
64873;SDS011;51367;45.204;38.576;2024-02-16T05:21:33;1.40;;;1.30;;
64873;SDS011;51367;45.204;38.576;2024-02-16T05:24:00;1.23;;;1.13;;
64873;SDS011;51367;45.204;38.576;2024-02-16T05:26:27;2.80;;;2.25;;
64873;SDS011;51367;45.204;38.576;2024-02-16T05:28:53;1.02;;;1.00;;
64873;SDS011;51367;45.204;38.576;2024-02-16T05:31:19;1.65;;;1.55;;
64873;SDS011;51367;45.204;38.576;2024-02-16T05:33:49;2.38;;;2.17;;
64873;SDS011;51367;45.204;38.576;2024-02-16T05:36:19;1.25;;;1.17;;
64873;SDS011;51367;45.204;38.576;2024-02-16T05:38:46;1.23;;;1.13;;
64873;SDS011;51367;45.204;38.576;2024-02-16T05:41:13;1.60;;;1.50;;
64873;SDS011;51367;45.204;38.576;2024-02-16T05:43:39;1.75;;;1.65;;
64873;SDS011;51367;45.204;38.576;2024-02-16T05:46:12;1.60;;;1.50;;
64873;SDS011;51367;45.204;38.576;2024-02-16T05:48:38;0.98;;;0.98;;
64873;SDS011;51367;45.204;38.576;2024-02-16T05:51:05;1.67;;;1.50;;
64873;SDS011;51367;45.204;38.576;2024-02-16T05:53:32;1.30;;;1.20;;
64873;SDS011;51367;45.204;38.576;2024-02-16T05:55:58;2.28;;;1.50;;
64873;SDS011;51367;45.204;38.576;2024-02-16T05:58:25;1.73;;;1.63;;
64873;SDS011;51367;45.204;38.576;2024-02-16T06:00:51;2.20;;;1.58;;
64873;SDS011;51367;45.204;38.576;2024-02-16T06:03:17;2.00;;;1.58;;
64873;SDS011;51367;45.204;38.576;2024-02-16T06:05:43;1.98;;;1.77;;
64873;SDS011;51367;45.204;38.576;2024-02-16T06:08:13;2.03;;;1.92;;
64873;SDS011;51367;45.204;38.576;2024-02-16T06:10:40;2.20;;;1.98;;
64873;SDS011;51367;45.204;38.576;2024-02-16T06:13:07;1.65;;;1.50;;
64873;SDS011;51367;45.204;38.576;2024-02-16T06:15:33;1.77;;;1.67;;
64873;SDS011;51367;45.204;38.576;2024-02-16T06:18:02;0.80;;;0.80;;
64873;SDS011;51367;45.204;38.576;2024-02-16T06:20:28;1.30;;;1.17;;
64873;SDS011;51367;45.204;38.576;2024-02-16T06:22:55;1.42;;;1.17;;
64873;SDS011;51367;45.204;38.576;2024-02-16T06:25:21;1.70;;;1.20;;
64873;SDS011;51367;45.204;38.576;2024-02-16T06:27:47;2.40;;;2.20;;
64873;SDS011;51367;45.204;38.576;2024-02-16T06:30:13;2.05;;;1.95;;
64873;SDS011;51367;45.204;38.576;2024-02-16T06:32:39;2.08;;;1.70;;
64873;SDS011;51367;45.204;38.576;2024-02-16T06:35:08;3.55;;;3.20;;
64873;SDS011;51367;45.204;38.576;2024-02-16T06:37:35;2.10;;;1.90;;
64873;SDS011;51367;45.204;38.576;2024-02-16T06:40:02;1.02;;;1.02;;
64873;SDS011;51367;45.204;38.576;2024-02-16T06:42:30;2.25;;;2.05;;
64873;SDS011;51367;45.204;38.576;2024-02-16T06:44:56;1.10;;;1.10;;
64873;SDS011;51367;45.204;38.576;2024-02-16T06:47:22;1.70;;;1.52;;
64873;SDS011;51367;45.204;38.576;2024-02-16T06:49:50;13.48;;;5.95;;
64873;SDS011;51367;45.204;38.576;2024-02-16T06:52:16;2.13;;;1.92;;
64873;SDS011;51367;45.204;38.576;2024-02-16T06:54:42;3.60;;;2.08;;
64873;SDS011;51367;45.204;38.576;2024-02-16T06:57:08;1.63;;;1.50;;
64873;SDS011;51367;45.204;38.576;2024-02-16T06:59:34;3.47;;;2.30;;
64873;SDS011;51367;45.204;38.576;2024-02-16T07:02:00;1.85;;;1.75;;
64873;SDS011;51367;45.204;38.576;2024-02-16T07:04:26;1.42;;;1.30;;
64873;SDS011;51367;45.204;38.576;2024-02-16T07:06:53;1.65;;;1.55;;
64873;SDS011;51367;45.204;38.576;2024-02-16T07:09:19;4.88;;;1.65;;
64873;SDS011;51367;45.204;38.576;2024-02-16T07:11:47;1.88;;;1.50;;
64873;SDS011;51367;45.204;38.576;2024-02-16T07:14:15;2.28;;;2.08;;
64873;SDS011;51367;45.204;38.576;2024-02-16T07:16:42;2.08;;;1.42;;
64873;SDS011;51367;45.204;38.576;2024-02-16T07:19:08;2.90;;;1.88;;
64873;SDS011;51367;45.204;38.576;2024-02-16T07:21:34;1.33;;;1.17;;
64873;SDS011;51367;45.204;38.576;2024-02-16T07:24:00;0.75;;;0.75;;
64873;SDS011;51367;45.204;38.576;2024-02-16T07:26:27;1.60;;;1.50;;
64873;SDS011;51367;45.204;38.576;2024-02-16T07:28:54;1.65;;;0.88;;
64873;SDS011;51367;45.204;38.576;2024-02-16T07:31:20;0.98;;;0.95;;
64873;SDS011;51367;45.204;38.576;2024-02-16T07:33:46;1.17;;;1.10;;
64873;SDS011;51367;45.204;38.576;2024-02-16T07:36:12;2.55;;;1.58;;
64873;SDS011;51367;45.204;38.576;2024-02-16T07:38:39;1.00;;;1.00;;
64873;SDS011;51367;45.204;38.576;2024-02-16T07:41:05;2.70;;;1.73;;
64873;SDS011;51367;45.204;38.576;2024-02-16T07:43:32;2.38;;;2.17;;
64873;SDS011;51367;45.204;38.576;2024-02-16T07:45:58;3.00;;;1.65;;
64873;SDS011;51367;45.204;38.576;2024-02-16T07:48:24;2.20;;;2.00;;
64873;SDS011;51367;45.204;38.576;2024-02-16T07:50:50;1.17;;;1.08;;
64873;SDS011;51367;45.204;38.576;2024-02-16T07:53:16;5.28;;;2.53;;
64873;SDS011;51367;45.204;38.576;2024-02-16T07:55:43;2.03;;;1.80;;
64873;SDS011;51367;45.204;38.576;2024-02-16T07:58:09;1.48;;;1.38;;
64873;SDS011;51367;45.204;38.576;2024-02-16T08:00:35;1.77;;;1.65;;
64873;SDS011;51367;45.204;38.576;2024-02-16T08:03:01;1.38;;;1.13;;
64873;SDS011;51367;45.204;38.576;2024-02-16T08:05:28;1.60;;;1.50;;
64873;SDS011;51367;45.204;38.576;2024-02-16T08:07:54;2.10;;;1.83;;
64873;SDS011;51367;45.204;38.576;2024-02-16T08:10:21;2.20;;;2.00;;
64873;SDS011;51367;45.204;38.576;2024-02-16T08:12:47;2.53;;;1.75;;
64873;SDS011;51367;45.204;38.576;2024-02-16T08:15:13;1.25;;;1.13;;
64873;SDS011;51367;45.204;38.576;2024-02-16T08:17:39;2.97;;;1.80;;
64873;SDS011;51367;45.204;38.576;2024-02-16T08:20:05;2.05;;;1.42;;
64873;SDS011;51367;45.204;38.576;2024-02-16T08:22:32;2.47;;;2.28;;
64873;SDS011;51367;45.204;38.576;2024-02-16T08:24:59;9.35;;;1.80;;
64873;SDS011;51367;45.204;38.576;2024-02-16T08:27:26;1.30;;;1.20;;
64873;SDS011;51367;45.204;38.576;2024-02-16T08:29:52;0.80;;;0.80;;
64873;SDS011;51367;45.204;38.576;2024-02-16T08:32:18;6.65;;;2.17;;
64873;SDS011;51367;45.204;38.576;2024-02-16T08:34:45;3.50;;;1.20;;
64873;SDS011;51367;45.204;38.576;2024-02-16T08:37:13;1.05;;;1.05;;
64873;SDS011;51367;45.204;38.576;2024-02-16T08:39:40;5.53;;;2.60;;
64873;SDS011;51367;45.204;38.576;2024-02-16T08:42:07;1.70;;;1.60;;
64873;SDS011;51367;45.204;38.576;2024-02-16T08:44:37;2.03;;;1.50;;
64873;SDS011;51367;45.204;38.576;2024-02-16T08:47:04;1.77;;;1.33;;
64873;SDS011;51367;45.204;38.576;2024-02-16T08:49:30;1.50;;;1.40;;
64873;SDS011;51367;45.204;38.576;2024-02-16T08:51:56;2.15;;;1.95;;
64873;SDS011;51367;45.204;38.576;2024-02-16T08:54:22;1.13;;;0.82;;
64873;SDS011;51367;45.204;38.576;2024-02-16T08:56:48;2.00;;;1.38;;
64873;SDS011;51367;45.204;38.576;2024-02-16T08:59:14;3.13;;;1.77;;
64873;SDS011;51367;45.204;38.576;2024-02-16T09:01:41;1.50;;;1.40;;
64873;SDS011;51367;45.204;38.576;2024-02-16T09:04:08;1.90;;;1.80;;
64873;SDS011;51367;45.204;38.576;2024-02-16T09:06:34;2.45;;;1.80;;
64873;SDS011;51367;45.204;38.576;2024-02-16T09:09:00;2.90;;;1.85;;
64873;SDS011;51367;45.204;38.576;2024-02-16T09:11:26;1.63;;;1.52;;
64873;SDS011;51367;45.204;38.576;2024-02-16T09:13:53;2.28;;;1.65;;
64873;SDS011;51367;45.204;38.576;2024-02-16T09:16:19;1.88;;;1.70;;
64873;SDS011;51367;45.204;38.576;2024-02-16T09:18:45;2.55;;;2.03;;
64873;SDS011;51367;45.204;38.576;2024-02-16T09:21:13;1.52;;;1.40;;
64873;SDS011;51367;45.204;38.576;2024-02-16T09:23:39;2.05;;;1.38;;
64873;SDS011;51367;45.204;38.576;2024-02-16T09:26:06;0.88;;;0.85;;
64873;SDS011;51367;45.204;38.576;2024-02-16T09:28:38;1.48;;;1.27;;
64873;SDS011;51367;45.204;38.576;2024-02-16T09:31:05;1.13;;;1.02;;
64873;SDS011;51367;45.204;38.576;2024-02-16T09:33:32;2.22;;;1.35;;
64873;SDS011;51367;45.204;38.576;2024-02-16T09:35:59;2.83;;;1.90;;
64873;SDS011;51367;45.204;38.576;2024-02-16T09:38:25;1.23;;;1.10;;
64873;SDS011;51367;45.204;38.576;2024-02-16T09:40:51;1.60;;;1.50;;
64873;SDS011;51367;45.204;38.576;2024-02-16T09:43:27;0.80;;;0.80;;
64873;SDS011;51367;45.204;38.576;2024-02-16T09:45:57;1.20;;;0.93;;
64873;SDS011;51367;45.204;38.576;2024-02-16T09:48:25;2.42;;;1.40;;
64873;SDS011;51367;45.204;38.576;2024-02-16T09:50:56;2.10;;;1.70;;
64873;SDS011;51367;45.204;38.576;2024-02-16T09:53:28;1.55;;;1.45;;
64873;SDS011;51367;45.204;38.576;2024-02-16T09:55:55;2.45;;;1.00;;
64873;SDS011;51367;45.204;38.576;2024-02-16T09:58:21;1.17;;;1.13;;
64873;SDS011;51367;45.204;38.576;2024-02-16T10:00:51;1.77;;;1.13;;
64873;SDS011;51367;45.204;38.576;2024-02-16T10:03:25;2.05;;;1.40;;
64873;SDS011;51367;45.204;38.576;2024-02-16T10:06:04;1.13;;;1.02;;
64873;SDS011;51367;45.204;38.576;2024-02-16T10:08:32;1.33;;;1.23;;
64873;SDS011;51367;45.204;38.576;2024-02-16T10:11:03;0.95;;;0.93;;
64873;SDS011;51367;45.204;38.576;2024-02-16T10:13:30;1.50;;;1.40;;
64873;SDS011;51367;45.204;38.576;2024-02-16T10:16:06;0.73;;;0.73;;
64873;SDS011;51367;45.204;38.576;2024-02-16T10:18:35;1.70;;;1.60;;
64873;SDS011;51367;45.204;38.576;2024-02-16T10:21:02;0.45;;;0.45;;
64873;SDS011;51367;45.204;38.576;2024-02-16T10:23:29;1.00;;;0.80;;
64873;SDS011;51367;45.204;38.576;2024-02-16T10:25:55;0.82;;;0.82;;
64873;SDS011;51367;45.204;38.576;2024-02-16T10:28:21;1.60;;;1.50;;
64873;SDS011;51367;45.204;38.576;2024-02-16T10:30:56;1.30;;;1.20;;
64873;SDS011;51367;45.204;38.576;2024-02-16T10:33:30;1.38;;;1.27;;
64873;SDS011;51367;45.204;38.576;2024-02-16T10:35:57;3.38;;;1.02;;
64873;SDS011;51367;45.204;38.576;2024-02-16T10:38:25;1.45;;;1.35;;
64873;SDS011;51367;45.204;38.576;2024-02-16T10:40:53;1.55;;;1.30;;
64873;SDS011;51367;45.204;38.576;2024-02-16T10:43:21;0.52;;;0.52;;
64873;SDS011;51367;45.204;38.576;2024-02-16T10:45:49;2.00;;;1.90;;
64873;SDS011;51367;45.204;38.576;2024-02-16T10:48:18;0.50;;;0.50;;
64873;SDS011;51367;45.204;38.576;2024-02-16T10:50:44;1.20;;;1.13;;
64873;SDS011;51367;45.204;38.576;2024-02-16T10:55:44;1.90;;;1.70;;
64873;SDS011;51367;45.204;38.576;2024-02-16T10:58:10;2.25;;;2.00;;
64873;SDS011;51367;45.204;38.576;2024-02-16T11:03:16;3.70;;;2.65;;
64873;SDS011;51367;45.204;38.576;2024-02-16T11:05:43;1.50;;;1.40;;
64873;SDS011;51367;45.204;38.576;2024-02-16T11:08:11;1.80;;;1.60;;
64873;SDS011;51367;45.204;38.576;2024-02-16T11:10:39;4.18;;;1.98;;
64873;SDS011;51367;45.204;38.576;2024-02-16T11:13:05;1.95;;;1.60;;
64873;SDS011;51367;45.204;38.576;2024-02-16T11:15:32;1.73;;;1.40;;
64873;SDS011;51367;45.204;38.576;2024-02-16T11:18:02;1.38;;;1.27;;
64873;SDS011;51367;45.204;38.576;2024-02-16T11:20:36;1.30;;;1.20;;
64873;SDS011;51367;45.204;38.576;2024-02-16T11:23:08;1.10;;;0.95;;
64873;SDS011;51367;45.204;38.576;2024-02-16T11:25:34;1.17;;;1.10;;
64873;SDS011;51367;45.204;38.576;2024-02-16T11:28:02;1.45;;;0.88;;
64873;SDS011;51367;45.204;38.576;2024-02-16T11:30:32;0.95;;;0.95;;
64873;SDS011;51367;45.204;38.576;2024-02-16T11:32:59;1.05;;;0.73;;
64873;SDS011;51367;45.204;38.576;2024-02-16T11:35:25;1.25;;;1.00;;
64873;SDS011;51367;45.204;38.576;2024-02-16T11:37:51;1.73;;;1.27;;
64873;SDS011;51367;45.204;38.576;2024-02-16T11:40:17;0.82;;;0.82;;
64873;SDS011;51367;45.204;38.576;2024-02-16T11:42:44;1.30;;;1.20;;
64873;SDS011;51367;45.204;38.576;2024-02-16T11:45:12;1.38;;;1.00;;
64873;SDS011;51367;45.204;38.576;2024-02-16T11:47:38;3.17;;;1.60;;
64873;SDS011;51367;45.204;38.576;2024-02-16T11:50:08;1.50;;;1.40;;
64873;SDS011;51367;45.204;38.576;2024-02-16T11:52:38;1.30;;;1.20;;
64873;SDS011;51367;45.204;38.576;2024-02-16T11:55:07;2.30;;;1.63;;
64873;SDS011;51367;45.204;38.576;2024-02-16T11:57:34;0.90;;;0.90;;
64873;SDS011;51367;45.204;38.576;2024-02-16T12:00:01;0.57;;;0.57;;
64873;SDS011;51367;45.204;38.576;2024-02-16T12:02:36;1.13;;;1.05;;
64873;SDS011;51367;45.204;38.576;2024-02-16T12:05:02;1.63;;;1.00;;
64873;SDS011;51367;45.204;38.576;2024-02-16T12:07:30;9.27;;;1.38;;
64873;SDS011;51367;45.204;38.576;2024-02-16T12:09:57;1.17;;;0.85;;
64873;SDS011;51367;45.204;38.576;2024-02-16T12:12:24;0.98;;;0.85;;
64873;SDS011;51367;45.204;38.576;2024-02-16T12:14:50;1.35;;;1.23;;
64873;SDS011;51367;45.204;38.576;2024-02-16T12:17:18;0.73;;;0.68;;
64873;SDS011;51367;45.204;38.576;2024-02-16T12:19:44;1.10;;;1.00;;
64873;SDS011;51367;45.204;38.576;2024-02-16T12:22:15;2.13;;;1.17;;
64873;SDS011;51367;45.204;38.576;2024-02-16T12:24:48;3.38;;;1.40;;
64873;SDS011;51367;45.204;38.576;2024-02-16T12:27:15;0.88;;;0.88;;
64873;SDS011;51367;45.204;38.576;2024-02-16T12:29:42;3.35;;;1.50;;
64873;SDS011;51367;45.204;38.576;2024-02-16T12:32:08;1.67;;;1.40;;
64873;SDS011;51367;45.204;38.576;2024-02-16T12:34:36;0.98;;;0.98;;
64873;SDS011;51367;45.204;38.576;2024-02-16T12:37:06;1.08;;;0.70;;
64873;SDS011;51367;45.204;38.576;2024-02-16T12:39:37;7.68;;;0.82;;
64873;SDS011;51367;45.204;38.576;2024-02-16T12:42:03;0.77;;;0.77;;
64873;SDS011;51367;45.204;38.576;2024-02-16T12:44:29;1.35;;;1.20;;
64873;SDS011;51367;45.204;38.576;2024-02-16T12:46:58;1.25;;;1.15;;
64873;SDS011;51367;45.204;38.576;2024-02-16T12:49:24;1.25;;;1.15;;
64873;SDS011;51367;45.204;38.576;2024-02-16T12:51:51;1.63;;;1.52;;
64873;SDS011;51367;45.204;38.576;2024-02-16T12:54:17;1.80;;;1.17;;
64873;SDS011;51367;45.204;38.576;2024-02-16T12:56:47;5.25;;;0.88;;
64873;SDS011;51367;45.204;38.576;2024-02-16T12:59:15;3.10;;;1.10;;
64873;SDS011;51367;45.204;38.576;2024-02-16T13:01:41;0.73;;;0.73;;
64873;SDS011;51367;45.204;38.576;2024-02-16T13:04:08;0.73;;;0.73;;
64873;SDS011;51367;45.204;38.576;2024-02-16T13:06:35;1.48;;;1.38;;
64873;SDS011;51367;45.204;38.576;2024-02-16T13:09:01;0.80;;;0.80;;
64873;SDS011;51367;45.204;38.576;2024-02-16T13:11:28;0.77;;;0.77;;
64873;SDS011;51367;45.204;38.576;2024-02-16T13:13:54;1.17;;;0.90;;
64873;SDS011;51367;45.204;38.576;2024-02-16T13:16:21;2.30;;;1.88;;
64873;SDS011;51367;45.204;38.576;2024-02-16T13:18:47;1.45;;;1.35;;
64873;SDS011;51367;45.204;38.576;2024-02-16T13:21:13;2.15;;;1.17;;
64873;SDS011;51367;45.204;38.576;2024-02-16T13:23:41;4.18;;;1.23;;
64873;SDS011;51367;45.204;38.576;2024-02-16T13:26:07;1.13;;;1.02;;
64873;SDS011;51367;45.204;38.576;2024-02-16T13:28:33;5.03;;;2.13;;
64873;SDS011;51367;45.204;38.576;2024-02-16T13:30:59;1.05;;;0.95;;
64873;SDS011;51367;45.204;38.576;2024-02-16T13:33:26;1.05;;;1.05;;
64873;SDS011;51367;45.204;38.576;2024-02-16T13:35:52;2.30;;;0.65;;
64873;SDS011;51367;45.204;38.576;2024-02-16T13:38:18;1.00;;;1.00;;
64873;SDS011;51367;45.204;38.576;2024-02-16T13:40:44;1.25;;;1.15;;
64873;SDS011;51367;45.204;38.576;2024-02-16T13:43:10;4.13;;;1.27;;
64873;SDS011;51367;45.204;38.576;2024-02-16T13:45:52;0.77;;;0.77;;
64873;SDS011;51367;45.204;38.576;2024-02-16T13:48:19;0.68;;;0.68;;
64873;SDS011;51367;45.204;38.576;2024-02-16T13:50:49;2.42;;;1.50;;
64873;SDS011;51367;45.204;38.576;2024-02-16T13:53:16;2.60;;;2.38;;
64873;SDS011;51367;45.204;38.576;2024-02-16T13:55:42;4.50;;;1.95;;
64873;SDS011;51367;45.204;38.576;2024-02-16T13:58:12;1.80;;;1.33;;
64873;SDS011;51367;45.204;38.576;2024-02-16T14:00:38;1.40;;;1.23;;
64873;SDS011;51367;45.204;38.576;2024-02-16T14:03:08;1.00;;;0.90;;
64873;SDS011;51367;45.204;38.576;2024-02-16T14:05:36;1.60;;;1.30;;
64873;SDS011;51367;45.204;38.576;2024-02-16T14:08:03;1.33;;;1.23;;
64873;SDS011;51367;45.204;38.576;2024-02-16T14:10:30;1.75;;;0.57;;
64873;SDS011;51367;45.204;38.576;2024-02-16T14:13:00;1.23;;;0.93;;
64873;SDS011;51367;45.204;38.576;2024-02-16T14:15:26;1.00;;;1.00;;
64873;SDS011;51367;45.204;38.576;2024-02-16T14:17:52;1.42;;;1.20;;
64873;SDS011;51367;45.204;38.576;2024-02-16T14:20:18;0.70;;;0.70;;
64873;SDS011;51367;45.204;38.576;2024-02-16T14:22:46;0.85;;;0.85;;
64873;SDS011;51367;45.204;38.576;2024-02-16T14:25:12;2.05;;;1.95;;
64873;SDS011;51367;45.204;38.576;2024-02-16T14:27:39;0.45;;;0.45;;
64873;SDS011;51367;45.204;38.576;2024-02-16T14:30:07;1.13;;;1.02;;
64873;SDS011;51367;45.204;38.576;2024-02-16T14:32:33;3.30;;;2.00;;
64873;SDS011;51367;45.204;38.576;2024-02-16T14:35:00;1.23;;;1.20;;
64873;SDS011;51367;45.204;38.576;2024-02-16T14:37:26;0.52;;;0.52;;
64873;SDS011;51367;45.204;38.576;2024-02-16T14:39:53;3.53;;;1.77;;